Date,TemperatureHighF,TemperatureAvgF,TemperatureLowF,DewpointHighF,DewpointAvgF,DewpointLowF,HumidityHigh,HumidityAvg,HumidityLow,PressureMaxIn,PressureMinIn,WindSpeedMaxMPH,WindSpeedAvgMPH,GustSpeedMaxMPH,PrecipitationSumIn
2013-1-1,33.9,28.5,21.8,33.0,25.6,16.0,97,89,76,30.25,30.06,10,5,15,0.01
2013-1-2,31.2,23.1,15.5,18.0,15.8,13.0,90,75,55,30.30,30.21,5,1,7,0.00
2013-1-3,40.4,28.6,19.2,29.0,23.2,16.0,91,81,62,30.41,30.24,7,1,9,0.00
2013-1-4,41.2,30.6,20.6,29.0,25.2,19.0,95,82,61,30.46,30.34,9,1,12,0.00
2013-1-5,42.4,35.6,25.4,35.0,30.2,23.0,93,81,66,30.35,30.17,8,2,12,0.00
2013-1-6,39.9,34.5,23.9,35.0,29.0,22.0,93,81,68,30.40,30.10,11,3,18,0.00
2013-1-7,42.9,30.5,19.1,29.0,24.3,17.0,94,79,54,30.44,30.20,10,2,13,0.00
2013-1-8,50.6,39.9,25.3,38.0,31.4,23.0,93,73,51,30.24,30.15,8,2,11,0.00
2013-1-9,57.7,48.5,42.8,48.0,43.6,38.0,97,84,63,30.43,30.20,7,2,10,0.15
2013-1-10,64.3,51.5,43.6,62.0,48.9,38.0,98,90,75,30.43,29.80,14,5,22,0.39
2013-1-11,62.2,57.8,53.8,59.0,52.0,49.0,92,81,68,29.92,29.80,14,4,23,0.01
2013-1-12,63.9,56.1,38.4,60.0,53.7,37.0,97,91,79,29.92,29.69,18,4,25,1.70
2013-1-13,37.0,30.3,23.2,35.0,27.9,19.0,96,90,81,30.35,29.84,15,7,24,0.52
2013-1-14,27.6,23.7,20.7,21.0,18.6,17.0,86,81,74,30.48,30.35,12,4,14,0.00
2013-1-15,29.9,26.1,21.2,25.0,21.7,19.0,91,83,78,30.38,30.11,10,4,19,0.00
2013-1-16,38.8,31.8,27.6,26.0,23.8,16.0,87,73,42,30.15,30.05,8,2,10,0.03
2013-1-17,41.2,34.6,27.6,35.0,27.9,23.0,86,77,68,30.49,30.13,15,4,25,0.06
2013-1-18,47.6,36.1,22.8,33.0,26.8,21.0,93,71,48,30.52,30.20,12,4,21,0.00
2013-1-19,56.0,47.5,39.8,42.0,35.4,29.0,76,64,54,30.21,29.97,16,6,24,0.00
2013-1-20,46.0,36.3,27.3,39.0,23.3,16.0,79,60,42,30.32,30.09,12,4,17,0.00
2013-1-21,30.2,25.3,19.7,20.0,11.6,2.0,75,57,43,30.38,30.25,13,6,20,0.00
2013-1-22,23.1,19.9,16.4,8.0,2.7,-1.0,56,47,41,30.48,30.38,8,3,10,0.00
2013-1-23,45.8,30.1,16.9,26.0,18.0,8.0,81,62,45,30.38,30.13,9,2,12,0.00
2013-1-24,32.8,26.8,20.5,23.0,12.5,6.0,71,56,41,30.57,30.26,15,7,21,0.00
2013-1-25,41.6,33.3,28.8,28.0,20.9,8.0,85,61,40,30.26,30.11,9,2,14,0.00
2013-1-26,40.2,33.3,28.9,26.0,22.4,19.0,85,65,43,30.39,30.22,8,2,11,0.00
2013-1-27,53.5,37.9,26.9,50.0,34.3,20.0,95,87,71,30.32,30.03,10,4,19,0.27
2013-1-28,65.4,60.5,53.5,61.0,57.1,49.0,93,88,81,30.03,29.93,23,7,23,0.08
2013-1-29,70.2,64.6,53.3,62.0,59.3,52.0,95,83,68,29.93,29.34,22,9,39,1.37
2013-1-30,55.5,44.2,30.8,52.0,39.0,19.0,97,82,63,29.91,29.37,19,8,28,0.30
2013-1-31,39.8,30.4,18.0,32.0,20.2,7.0,93,66,55,30.36,29.92,20,7,29,0.00
2013-2-1,27.6,20.2,12.3,15.0,6.9,2.0,68,57,43,30.52,30.30,12,4,20,0.00
2013-2-2,45.6,35.2,26.1,30.0,23.4,15.0,80,63,45,30.30,30.06,16,4,19,0.00
2013-2-3,37.4,33.5,29.0,32.0,26.2,21.0,96,75,53,30.17,30.01,18,4,24,0.02
2013-2-4,47.4,39.5,29.6,41.0,32.1,22.0,93,75,55,30.06,29.80,12,4,22,0.03
2013-2-5,56.8,40.6,26.9,39.0,32.8,25.0,96,76,49,30.10,29.89,11,2,15,0.01
2013-2-6,51.7,40.8,27.4,35.0,31.3,26.0,94,71,46,30.24,30.07,5,2,10,0.00
2013-2-7,64.8,49.0,32.1,54.0,41.7,30.0,95,78,52,30.07,29.80,11,3,23,0.22
2013-2-8,44.1,37.5,32.8,41.0,32.4,27.0,92,82,74,30.37,29.97,23,8,23,0.00
2013-2-9,47.2,38.7,32.3,37.0,29.7,27.0,86,71,53,30.36,30.04,10,3,13,0.05
2013-2-10,57.2,50.1,40.4,54.0,45.6,37.0,94,85,61,30.03,29.64,16,5,23,0.49
2013-2-11,54.9,45.6,33.7,40.0,29.6,27.0,82,55,37,30.13,29.79,19,5,24,0.00
2013-2-12,47.8,38.8,27.5,35.0,30.7,25.0,92,74,54,30.15,29.89,7,1,9,0.00
2013-2-13,51.6,42.3,36.1,38.0,35.4,31.0,94,78,47,29.91,29.82,11,4,14,0.15
2013-2-14,59.9,47.5,37.5,37.0,35.2,32.0,92,65,38,30.02,29.85,9,3,15,0.00
2013-2-15,43.8,37.9,28.7,36.0,25.4,17.0,74,62,40,30.22,30.02,15,4,22,0.00
2013-2-16,36.0,29.5,23.3,21.0,16.7,10.0,80,61,34,30.25,30.18,14,4,17,0.00
2013-2-17,47.1,35.2,20.9,27.0,21.7,17.0,88,61,40,30.23,30.00,13,4,19,0.00
2013-2-18,56.6,49.0,41.1,49.0,41.6,26.0,93,77,55,29.99,29.60,16,8,32,0.81
2013-2-19,42.0,35.0,27.2,37.0,20.2,12.0,83,57,31,30.28,29.86,17,7,24,0.00
2013-2-20,28.8,25.8,22.7,19.0,15.7,13.0,79,66,59,30.38,30.27,8,3,12,0.00
2013-2-21,33.9,28.5,23.8,33.0,24.3,18.0,96,84,70,30.30,29.81,11,3,17,0.00
2013-2-22,39.6,35.0,28.4,35.0,31.5,26.0,97,87,75,30.07,29.82,15,3,19,0.68
2013-2-23,39.9,31.3,23.8,27.0,24.5,22.0,92,77,59,30.06,29.97,9,2,12,0.01
2013-2-24,49.6,36.2,22.6,31.0,26.4,21.0,94,70,44,30.15,30.02,8,2,10,0.01
2013-2-25,52.1,43.0,31.4,36.0,30.4,28.0,87,63,46,30.05,29.52,17,6,26,0.09
2013-2-26,49.8,42.7,37.5,45.0,39.4,34.0,96,88,74,29.64,29.31,13,5,21,0.56
2013-2-27,39.8,36.6,32.9,34.0,31.6,29.0,93,82,68,29.89,29.65,11,5,20,0.09
2013-2-28,38.4,34.8,32.8,32.0,30.3,28.0,93,84,77,30.08,29.88,12,5,18,0.00
2013-3-1,35.3,32.8,30.6,33.0,31.1,29.0,96,93,89,30.14,30.04,13,4,16,0.11
2013-3-2,32.8,30.7,28.6,29.0,24.6,19.0,92,78,60,30.22,30.13,16,6,19,0.00
2013-3-3,41.3,32.7,21.6,26.0,20.5,14.0,90,64,35,30.21,30.06,6,1,10,0.00
2013-3-4,54.1,46.1,37.2,40.0,30.5,24.0,70,55,44,30.08,29.75,18,5,22,0.00
2013-3-5,47.7,38.0,33.2,39.0,32.0,23.0,95,79,61,30.06,29.73,24,7,34,0.15
2013-3-6,39.5,35.3,30.0,29.0,26.4,24.0,85,70,63,30.32,30.06,21,8,28,0.00
2013-3-7,47.1,35.4,25.4,31.0,27.7,24.0,94,75,52,30.41,30.30,9,2,10,0.00
2013-3-8,54.4,41.5,27.3,34.0,30.5,26.0,93,68,43,30.43,30.21,11,3,14,0.00
2013-3-9,67.8,55.0,43.1,39.0,34.2,31.0,63,47,33,30.20,29.85,15,6,27,0.00
2013-3-10,65.7,58.3,50.5,54.0,47.3,37.0,95,69,41,29.85,29.65,18,8,35,0.42
2013-3-11,51.0,40.4,36.5,49.0,35.7,29.0,95,83,73,29.99,29.68,13,4,21,0.02
2013-3-12,51.8,39.7,30.3,31.0,26.8,20.0,86,63,35,30.18,29.99,20,4,26,0.00
2013-3-13,41.8,35.6,29.9,27.0,21.8,18.0,82,58,43,30.41,30.18,23,7,23,0.00
2013-3-14,46.7,35.4,25.1,33.0,26.6,22.0,90,72,52,30.40,30.11,14,2,16,0.01
2013-3-15,75.3,53.5,29.8,54.0,41.4,28.0,94,68,32,30.11,29.69,13,3,18,0.00
2013-3-16,66.8,52.9,40.6,51.0,44.0,36.0,85,73,57,29.98,29.64,18,7,22,0.00
2013-3-17,40.4,37.8,34.6,38.0,36.2,33.0,96,94,84,30.06,29.74,18,6,20,1.89
2013-3-18,49.1,43.5,40.2,42.0,39.8,35.0,97,87,70,29.97,29.64,14,4,19,0.96
2013-3-19,48.2,40.8,30.5,34.0,23.0,17.0,81,51,30,30.19,29.97,12,3,18,0.00
2013-3-20,38.0,33.9,28.1,32.0,23.7,16.0,87,67,48,30.22,30.10,15,5,23,0.00
2013-3-21,38.6,30.9,23.7,23.0,17.8,13.0,77,59,42,30.11,29.98,12,3,16,0.00
2013-3-22,41.9,37.4,33.3,27.0,24.0,21.0,66,59,50,30.03,29.96,8,3,10,0.00
2013-3-23,54.9,46.0,38.6,41.0,31.3,25.0,85,58,45,30.01,29.76,13,4,18,0.04
2013-3-24,45.4,37.2,32.6,41.0,34.9,31.0,96,91,83,29.76,29.45,23,7,23,0.25
2013-3-25,37.2,33.8,31.5,33.0,29.8,28.0,95,85,75,30.16,29.76,16,8,25,0.03
2013-3-26,42.3,36.2,30.3,30.0,27.1,25.0,84,71,51,30.34,30.17,13,5,19,0.00
2013-3-27,50.0,45.9,29.2,32.0,28.5,25.0,85,52,41,30.38,30.28,9,2,13,0.00
2013-3-28,58.2,47.4,38.2,39.0,33.0,29.0,71,59,41,30.36,30.21,10,3,13,0.00
2013-3-29,54.9,48.6,42.2,48.0,44.0,39.0,94,84,69,30.26,30.16,6,2,8,0.08
2013-3-30,41.8,40.4,38.8,40.0,39.4,38.0,96,96,94,30.19,30.16,5,1,5,0.01
2013-4-1,50.0,46.3,40.0,31.0,28.0,25.0,61,50,39,30.18,30.12,11,4,16,0.00
2013-4-2,47.9,40.4,30.9,29.0,22.7,15.0,83,52,27,30.32,30.19,10,2,15,0.00
2013-4-3,52.5,42.9,29.9,30.0,25.6,21.0,88,54,32,30.36,30.21,16,3,18,0.00
2013-4-4,60.1,47.8,35.0,32.0,27.0,24.0,70,47,25,30.20,29.98,9,2,14,0.00
2013-4-5,66.8,52.8,34.7,42.0,35.3,30.0,85,55,35,30.11,30.02,9,2,15,0.00
2013-4-6,73.0,63.3,49.5,47.0,40.1,35.0,64,44,27,30.04,29.79,18,6,29,0.00
2013-4-7,75.9,68.4,61.0,58.0,54.0,46.0,74,61,51,29.90,29.82,15,5,22,0.00
2013-4-8,76.3,68.3,61.8,60.0,57.0,53.0,78,68,53,29.87,29.78,14,5,24,0.00
2013-4-9,81.8,71.8,64.3,65.0,61.4,57.0,78,70,53,29.92,29.80,19,6,22,0.00
2013-4-10,83.2,75.4,65.0,69.0,66.2,63.0,92,74,56,29.84,29.61,16,6,27,0.37
2013-4-11,66.6,53.0,42.7,64.0,49.7,34.0,96,89,70,29.74,29.53,21,5,40,0.34
2013-4-12,56.6,44.2,37.7,36.0,34.4,33.0,87,70,44,30.03,29.73,15,3,23,0.00
2013-4-13,65.8,51.9,35.2,43.0,37.5,33.0,91,61,39,30.07,29.92,13,3,15,0.00
2013-4-14,76.0,62.9,48.5,55.0,46.9,42.0,80,58,38,29.91,29.68,18,6,28,0.00
2013-4-15,78.3,68.2,59.9,62.0,57.7,51.0,81,70,58,29.88,29.75,15,6,23,0.00
2013-4-16,71.4,60.1,53.7,62.0,55.6,50.0,94,85,69,30.07,29.81,12,4,16,0.00
2013-4-17,85.5,69.3,54.4,70.0,62.0,52.0,96,79,53,30.07,29.73,16,4,24,0.00
2013-4-18,76.7,67.0,44.2,68.0,60.5,38.0,95,80,65,29.74,29.57,22,8,31,1.44
2013-4-19,53.8,45.2,41.2,38.0,31.0,27.0,80,59,36,30.06,29.71,19,6,24,0.44
2013-4-20,57.6,47.5,34.4,36.0,33.2,30.0,90,60,38,30.30,30.06,12,3,13,0.00
2013-4-21,64.0,53.1,41.9,39.0,35.3,33.0,72,53,36,30.40,30.23,11,4,15,0.00
2013-4-22,72.9,58.9,39.9,49.0,43.1,38.0,92,59,35,30.24,29.98,11,2,17,0.00
2013-4-23,71.1,61.0,44.1,61.0,53.0,42.0,92,75,62,30.00,29.76,17,5,26,0.03
2013-4-24,52.6,44.7,40.3,42.0,37.3,32.0,94,77,46,30.25,29.90,14,5,22,0.42
2013-4-25,63.1,51.3,37.2,42.0,38.1,35.0,93,64,40,30.32,30.23,12,3,17,0.00
2013-4-26,55.1,52.2,47.9,49.0,44.2,38.0,93,75,61,30.39,30.24,11,3,15,0.12
2013-4-27,56.8,53.5,50.1,56.0,52.3,49.0,98,95,92,30.29,29.88,10,2,13,0.16
2013-4-28,60.2,56.5,53.7,56.0,53.6,53.0,98,90,79,29.92,29.84,8,2,13,0.00
2013-4-29,74.6,62.5,49.4,60.0,55.5,48.0,98,80,59,29.95,29.81,12,3,18,0.00
2013-4-30,83.0,72.0,58.4,60.0,57.8,55.0,88,63,44,29.92,29.82,14,3,15,0.00
2013-5-1,82.4,71.2,56.0,64.0,59.2,54.0,92,67,45,30.03,29.91,12,2,14,0.00
2013-5-2,78.4,67.3,55.2,62.0,58.7,54.0,96,76,50,30.08,29.98,10,3,17,0.14
2013-5-3,55.0,48.1,42.4,53.0,47.1,41.0,97,96,94,30.00,29.75,8,3,13,1.15
2013-5-4,52.1,46.0,41.9,42.0,40.2,37.0,96,81,58,29.96,29.83,12,2,14,0.08
2013-5-5,58.9,51.3,43.4,56.0,50.1,42.0,98,95,87,29.94,29.82,7,2,10,0.94
2013-5-6,62.8,58.1,52.8,59.0,55.4,52.0,97,91,82,29.91,29.82,10,4,16,0.01
2013-5-7,76.4,64.3,51.9,59.0,56.6,51.0,98,78,53,29.98,29.90,8,2,14,0.01
2013-5-8,81.6,69.0,53.5,60.0,54.9,49.0,97,66,33,30.00,29.92,8,1,10,0.00
2013-5-9,81.4,73.0,64.0,64.0,59.9,54.0,86,65,39,29.95,29.81,20,4,23,0.00
2013-5-10,75.7,68.3,59.5,65.0,61.4,54.0,94,79,64,29.94,29.78,12,4,18,0.06
2013-5-11,71.3,61.3,53.3,55.0,48.6,37.0,86,65,34,30.09,29.91,14,6,22,0.00
2013-5-12,62.5,53.3,42.5,41.0,34.4,29.0,81,52,29,30.19,30.10,14,3,18,0.00
2013-5-13,72.2,58.2,40.1,44.0,39.0,31.0,92,54,27,30.21,30.04,8,2,11,0.00
2013-5-14,87.5,74.0,58.6,64.0,56.0,42.0,73,54,44,30.03,29.80,11,4,20,0.00
2013-5-15,86.0,78.0,69.7,65.0,60.6,57.0,67,56,45,29.94,29.81,13,4,19,0.00
2013-5-16,81.3,74.6,68.5,64.0,61.7,59.0,83,65,48,29.91,29.82,8,2,17,0.00
2013-5-17,75.0,69.8,64.9,67.0,64.1,62.0,93,82,72,29.92,29.86,9,3,18,0.02
2013-5-18,82.7,72.2,61.1,68.0,64.6,60.0,97,79,59,29.96,29.85,7,2,10,0.00
2013-5-19,88.5,79.1,69.7,75.0,70.4,66.0,94,75,56,29.86,29.73,13,3,16,0.00
2013-5-20,87.2,79.9,74.8,71.0,69.9,68.0,85,72,54,29.86,29.71,11,4,21,0.00
2013-5-21,80.9,70.7,64.8,70.0,65.2,63.0,95,83,64,29.82,29.66,13,4,21,0.82
2013-5-22,77.6,70.7,64.1,65.0,62.1,59.0,92,75,55,29.80,29.67,15,4,17,0.01
2013-5-23,68.5,63.3,56.6,58.0,55.4,51.0,86,76,64,30.15,29.83,17,5,21,0.00
2013-5-24,70.2,57.9,44.9,51.0,42.7,38.0,86,60,36,30.34,30.14,10,3,21,0.00
2013-5-25,75.8,63.2,46.7,55.0,49.6,45.0,93,65,40,30.31,30.09,10,2,18,0.00
2013-5-26,82.4,72.4,60.3,64.0,58.8,54.0,81,63,51,30.14,29.99,11,3,14,0.00
2013-5-27,85.5,75.2,66.7,67.0,62.6,58.0,81,66,42,30.00,29.79,20,4,28,0.00
2013-5-28,87.1,79.3,72.2,69.0,65.3,62.0,79,63,49,29.91,29.81,22,5,30,0.00
2013-5-29,87.9,78.8,65.8,69.0,65.0,61.0,85,64,47,29.96,29.82,13,4,23,0.00
2013-5-30,84.0,78.7,72.4,71.0,69.3,68.0,93,73,62,29.91,29.80,18,6,27,0.06
2013-5-31,81.6,75.6,68.1,73.0,70.1,65.0,96,83,66,29.87,29.74,14,5,22,0.17
2013-6-1,79.0,68.0,64.3,73.0,65.4,63.0,96,91,80,29.89,29.70,19,5,30,1.85
2013-6-2,70.8,66.6,61.3,65.0,61.0,58.0,96,83,70,29.95,29.84,10,3,13,0.01
2013-6-3,71.1,64.4,57.9,58.0,55.9,54.0,92,75,55,30.03,29.94,8,2,11,0.00
2013-6-4,77.6,66.7,52.3,63.0,57.7,51.0,96,75,54,30.05,29.93,8,2,10,0.00
2013-6-5,83.4,72.8,61.9,67.0,62.6,60.0,95,72,47,29.95,29.77,7,1,9,0.07
2013-6-6,81.4,73.3,66.4,66.0,63.6,59.0,94,73,51,29.78,29.73,11,3,17,0.01
2013-6-7,77.0,69.7,63.5,62.0,60.2,57.0,86,73,54,29.84,29.76,14,4,16,0.00
2013-6-8,81.2,71.1,58.6,62.0,58.3,55.0,94,67,40,29.93,29.83,7,2,11,0.00
2013-6-9,78.8,71.4,63.8,70.0,62.7,58.0,96,75,57,29.92,29.76,11,3,18,0.09
2013-6-10,80.6,71.4,63.4,68.0,64.6,62.0,97,81,57,29.87,29.75,15,2,15,0.05
2013-6-11,92.3,79.1,61.7,77.0,69.5,60.0,96,74,55,29.94,29.82,9,2,14,0.00
2013-6-12,93.4,86.2,76.9,76.0,73.6,71.0,84,67,54,29.93,29.72,12,4,21,0.00
2013-6-13,86.1,78.4,68.8,73.0,66.8,61.0,82,68,48,29.90,29.70,18,5,22,0.00
2013-6-14,83.3,73.7,60.9,65.0,60.4,58.0,93,65,45,30.03,29.89,10,2,14,0.00
2013-6-15,87.7,77.5,65.6,68.0,65.2,61.0,89,67,50,30.04,29.89,9,2,12,0.00
2013-6-16,85.3,77.7,71.8,74.0,70.4,67.0,89,79,61,29.96,29.87,8,2,13,0.02
2013-6-17,87.5,74.2,66.2,75.0,69.3,63.0,95,85,63,29.89,29.79,11,2,20,0.34
2013-6-18,87.2,75.3,62.9,70.0,66.6,62.0,97,76,53,29.91,29.82,7,2,14,0.00
2013-6-19,88.0,77.2,65.7,70.0,66.5,64.0,94,72,46,29.99,29.89,7,2,11,0.00
2013-6-20,90.9,80.5,68.0,72.0,69.3,66.0,94,71,47,30.07,29.99,8,2,12,0.00
2013-6-21,91.0,83.0,74.1,73.0,70.6,68.0,83,67,52,30.08,29.98,11,3,17,0.00
2013-6-22,90.0,79.1,68.2,74.0,70.0,65.0,94,75,51,30.06,29.92,20,4,27,0.42
2013-6-23,88.5,76.3,67.7,74.0,69.2,65.0,94,79,60,30.04,29.92,12,3,26,0.08
2013-6-24,91.4,79.2,68.9,76.0,71.6,67.0,95,79,54,30.05,29.93,9,3,15,0.01
2013-6-25,91.9,84.1,77.2,76.0,74.0,73.0,86,72,56,29.95,29.77,12,3,17,0.00
2013-6-26,90.7,80.4,73.5,79.0,73.8,70.0,94,81,67,29.85,29.66,21,4,24,0.68
2013-6-27,93.8,83.8,75.0,75.0,72.7,69.0,96,72,44,29.80,29.71,13,3,17,0.00
2013-6-28,89.6,81.7,74.7,73.0,67.7,60.0,89,65,42,29.78,29.62,15,4,22,0.00
2013-6-29,83.7,74.3,65.1,65.0,62.9,61.0,93,69,50,29.65,29.56,14,4,22,0.05
2013-6-30,76.6,68.5,65.0,66.0,64.8,63.0,95,88,69,29.80,29.64,13,4,24,0.10
2013-7-1,70.6,66.8,63.5,66.0,64.4,62.0,96,92,80,29.88,29.78,14,4,19,0.26
2013-7-2,67.0,64.9,63.3,66.0,63.9,62.0,97,96,94,29.98,29.82,9,4,17,0.17
2013-7-3,80.4,70.2,62.7,65.0,62.1,59.0,97,78,50,30.06,29.96,6,1,9,0.00
2013-7-4,83.4,72.8,59.8,69.0,64.5,59.0,97,77,51,30.04,29.95,9,2,12,0.01
2013-7-5,82.2,74.4,65.0,70.0,67.2,64.0,97,79,61,30.04,29.95,10,2,12,0.00
2013-7-6,85.9,76.2,69.4,72.0,68.5,61.0,94,78,57,30.04,29.91,12,3,17,0.00
2013-7-7,89.4,78.4,64.8,73.0,68.9,62.0,93,74,51,30.02,29.95,6,2,13,0.00
2013-7-8,90.1,81.7,73.7,75.0,72.3,70.0,88,74,57,30.06,29.97,7,2,12,0.00
2013-7-9,92.9,85.3,77.6,78.0,75.0,72.0,86,72,57,30.01,29.89,7,2,12,0.00
2013-7-10,85.4,81.3,77.8,76.0,74.5,72.0,88,80,67,29.94,29.84,9,2,12,0.00
2013-7-11,83.5,76.9,68.1,74.0,65.6,60.0,93,70,47,29.98,29.88,12,4,17,0.00
2013-7-12,84.0,73.4,61.6,64.0,61.3,59.0,93,69,46,30.05,29.96,10,2,14,0.00
2013-7-13,84.9,74.6,62.2,66.0,62.8,57.0,94,69,45,30.02,29.93,10,2,15,0.00
2013-7-14,87.4,75.8,64.8,73.0,69.0,63.0,95,81,60,30.07,29.97,10,2,17,0.04
2013-7-15,87.2,79.4,71.9,76.0,73.6,71.0,96,83,66,30.17,30.06,10,3,14,0.01
2013-7-16,91.7,83.2,72.3,75.0,73.2,71.0,94,73,55,30.24,30.16,10,2,13,0.00
2013-7-17,94.4,84.9,73.7,76.0,73.7,72.0,95,71,50,30.27,30.12,5,1,9,0.00
2013-7-18,94.2,84.8,75.5,78.0,75.3,71.0,95,75,48,30.14,29.98,8,1,13,0.00
2013-7-19,90.9,82.9,74.2,75.0,73.1,72.0,93,73,54,29.99,29.84,8,2,13,0.00
2013-7-20,92.4,80.8,70.6,77.0,72.9,69.0,95,78,58,29.90,29.73,9,3,16,1.48
2013-7-21,87.2,75.8,70.7,76.0,71.7,69.0,96,87,66,29.89,29.79,5,1,11,0.16
2013-7-22,88.9,78.3,70.7,77.0,73.0,70.0,96,84,64,29.82,29.73,6,2,11,0.01
2013-7-23,90.4,80.7,73.1,78.0,73.5,66.0,92,79,62,29.82,29.69,10,2,15,0.01
2013-7-24,79.9,73.3,66.6,68.0,62.4,58.0,92,70,48,29.96,29.80,10,4,16,0.00
2013-7-25,79.8,70.4,59.5,62.0,59.6,58.0,93,71,48,30.05,29.95,11,2,14,0.00
2013-7-26,77.6,70.4,60.9,69.0,64.4,59.0,94,82,61,30.02,29.91,7,1,10,0.03
2013-7-27,77.9,71.5,61.9,68.0,62.5,55.0,96,75,50,29.94,29.87,11,3,16,0.14
2013-7-28,78.4,67.5,55.0,62.0,57.0,54.0,95,71,49,30.01,29.93,9,2,12,0.00
2013-7-29,78.2,71.3,62.2,66.0,63.4,60.0,92,77,61,30.12,30.00,6,1,9,0.00
2013-7-30,72.6,70.3,67.3,71.0,66.9,63.0,96,89,75,30.09,29.96,8,3,11,0.65
2013-7-31,84.2,75.8,70.4,75.0,71.3,68.0,97,86,71,29.97,29.89,8,2,15,0.00
2013-8-1,85.2,75.1,66.5,71.0,66.7,62.0,97,77,46,30.01,29.93,9,2,12,0.00
2013-8-2,84.8,74.1,63.4,73.0,67.5,62.0,95,81,58,29.96,29.87,6,1,11,0.03
2013-8-3,84.6,76.5,71.6,74.0,71.7,69.0,97,85,69,30.03,29.85,9,2,11,0.12
2013-8-4,80.9,73.5,65.1,69.0,64.2,59.0,95,74,52,30.11,30.02,8,2,9,0.00
2013-8-5,72.4,68.8,64.3,68.0,64.8,60.0,94,87,71,30.04,29.86,7,2,12,0.39
2013-8-6,82.6,76.0,70.2,74.0,71.3,68.0,97,86,70,29.89,29.81,8,2,14,0.01
2013-8-7,86.1,76.1,71.6,74.0,72.0,70.0,96,88,62,29.89,29.78,7,2,11,0.10
2013-8-8,84.5,75.6,69.3,76.0,72.8,68.0,97,91,72,29.94,29.80,5,1,19,0.91
2013-8-9,81.1,74.7,71.4,74.0,72.4,70.0,97,92,78,29.99,29.86,6,1,8,0.51
2013-8-10,84.7,76.8,70.9,72.0,70.1,64.0,97,81,51,30.07,29.98,7,2,10,0.03
2013-8-11,85.3,76.8,66.8,72.0,68.9,65.0,95,78,60,30.07,29.98,6,1,9,0.00
2013-8-12,86.2,77.3,71.5,77.0,73.5,70.0,96,88,72,30.01,29.85,9,2,10,0.09
2013-8-13,81.1,74.0,66.7,72.0,68.0,62.0,97,83,61,30.03,29.86,12,4,16,0.01
2013-8-14,73.3,65.2,56.4,61.0,54.8,51.0,90,71,49,30.12,30.04,12,3,17,0.00
2013-8-15,74.5,64.5,54.9,60.0,56.2,53.0,94,76,53,30.10,30.01,10,2,14,0.00
2013-8-16,76.2,66.9,55.3,64.0,59.5,54.0,96,79,56,30.07,30.03,8,2,11,0.00
2013-8-17,79.1,70.1,63.4,67.0,64.2,61.0,94,82,62,30.11,30.03,11,2,13,0.18
2013-8-18,82.6,72.8,65.9,71.0,66.8,65.0,97,83,55,30.10,30.00,7,1,10,0.06
2013-8-19,84.5,74.4,64.5,71.0,67.5,64.0,98,81,53,30.07,29.97,7,1,11,0.00
2013-8-20,87.7,77.1,66.5,72.0,68.8,65.0,96,77,52,30.06,29.97,6,1,9,0.00
2013-8-21,88.7,79.0,68.2,73.0,70.2,67.0,96,76,54,30.09,29.98,7,1,10,0.00
2013-8-22,89.2,80.3,70.0,75.0,72.5,68.0,93,78,59,30.05,29.95,6,1,13,0.01
2013-8-23,88.7,79.7,71.5,75.0,72.7,70.0,96,80,58,30.04,29.96,8,2,11,0.00
2013-8-24,88.7,78.6,68.0,74.0,69.2,67.0,95,75,49,30.14,30.03,10,2,13,0.00
2013-8-25,91.1,78.8,65.0,74.0,69.8,64.0,95,76,48,30.20,30.11,5,1,9,0.00
2013-8-26,89.7,81.3,73.7,76.0,73.9,72.0,94,79,60,30.18,30.03,9,2,13,0.00
2013-8-27,90.3,81.8,74.4,77.0,74.1,71.0,89,78,66,30.05,29.94,9,2,10,0.00
2013-8-28,92.1,82.9,73.9,73.0,71.1,68.0,87,69,46,29.98,29.92,8,2,15,0.00
2013-8-29,94.1,84.2,74.1,76.0,73.4,71.0,90,72,50,29.98,29.88,8,2,12,0.00
2013-8-30,95.3,84.3,73.6,77.0,73.9,70.0,92,73,46,29.91,29.78,7,1,10,0.00
2013-8-31,96.3,87.5,79.7,78.0,75.6,74.0,82,69,50,29.80,29.67,9,2,14,0.00
2013-9-1,88.1,81.9,76.2,76.0,74.5,72.0,92,79,62,29.78,29.67,9,2,18,0.00
2013-9-2,85.7,77.5,70.5,74.0,68.3,63.0,96,75,48,29.87,29.76,11,3,15,0.00
2013-9-3,83.7,72.6,62.5,67.0,62.8,60.0,93,73,48,30.01,29.88,9,2,13,0.00
2013-9-4,83.8,71.8,59.5,64.0,61.2,58.0,95,72,46,30.11,30.01,7,2,11,0.00
2013-9-5,86.3,72.9,59.1,65.0,62.6,57.0,94,72,47,30.15,30.06,9,1,13,0.00
2013-9-6,88.5,76.9,65.1,68.0,66.0,63.0,93,71,45,30.12,29.99,9,1,12,0.00
2013-9-7,89.4,77.9,64.3,70.0,67.5,62.0,95,72,51,30.01,29.88,10,2,12,0.00
2013-9-8,82.6,78.7,73.3,74.0,70.8,67.0,85,77,70,29.93,29.84,9,1,11,0.00
2013-9-9,95.1,84.1,74.2,77.0,74.5,72.0,94,74,52,29.93,29.86,8,2,13,0.00
2013-9-10,93.0,84.3,77.0,76.0,74.1,71.0,88,73,50,30.05,29.93,11,2,13,0.00
2013-9-11,94.8,83.7,74.2,75.0,72.0,68.0,89,70,41,30.08,29.98,10,2,12,0.00
2013-9-12,86.1,78.3,70.7,73.0,68.9,60.0,91,74,49,30.02,29.90,10,3,14,0.01
2013-9-13,75.3,67.1,57.7,59.0,54.1,51.0,87,65,44,30.05,29.96,15,3,16,0.00
2013-9-14,74.6,62.3,49.6,53.0,49.6,47.0,91,66,38,30.11,30.00,11,2,11,0.00
2013-9-15,80.3,66.8,50.4,59.0,54.2,48.0,92,67,43,30.05,29.96,6,1,11,0.00
2013-9-16,74.2,67.9,63.4,64.0,62.1,59.0,95,82,67,30.17,30.02,10,2,13,0.02
2013-9-17,80.7,69.5,58.2,66.0,61.7,56.0,94,78,58,30.17,30.03,8,2,11,0.00
2013-9-18,86.8,76.1,67.2,72.0,68.5,63.0,90,78,60,30.05,29.92,8,2,13,0.00
2013-9-19,88.2,79.1,73.2,75.0,72.1,70.0,90,80,64,29.99,29.85,9,4,15,0.00
2013-9-20,77.6,72.4,65.4,71.0,69.1,64.0,97,89,74,29.88,29.79,11,2,17,0.38
2013-9-21,72.7,63.6,55.7,63.0,54.1,51.0,93,73,47,29.88,29.81,14,4,19,0.05
2013-9-22,75.9,62.5,50.0,55.0,52.1,49.0,96,72,42,29.96,29.86,9,1,12,0.02
2013-9-23,77.5,63.1,49.1,56.0,52.4,48.0,95,72,38,29.99,29.88,13,2,15,0.00
2013-9-24,80.5,67.8,55.0,69.0,61.7,52.0,93,81,67,29.91,29.76,11,2,16,0.01
2013-9-25,82.0,71.8,64.1,68.0,65.1,63.0,96,81,55,29.82,29.74,8,2,12,0.00
2013-9-26,84.2,71.8,60.8,67.0,62.8,59.0,98,76,43,29.96,29.81,7,1,13,0.00
2013-9-27,82.3,69.9,57.1,64.0,58.4,52.0,94,70,37,30.07,29.96,8,1,11,0.00
2013-9-28,82.6,72.4,59.6,66.0,60.5,56.0,90,68,47,30.05,29.94,14,3,19,0.00
2013-9-29,71.9,65.5,62.0,64.0,62.5,61.0,97,90,68,29.99,29.92,12,2,12,0.16
2013-9-30,73.5,67.4,64.3,67.0,64.6,63.0,96,91,78,29.95,29.88,11,2,13,0.00
2013-10-1,75.7,70.3,66.1,71.0,67.6,64.0,95,91,83,30.00,29.92,6,2,11,0.00
2013-10-2,82.7,72.9,67.6,73.0,69.6,67.0,98,90,71,30.03,29.94,13,2,16,0.03
2013-10-3,84.1,75.7,69.5,70.0,68.7,67.0,95,80,61,29.97,29.87,9,3,16,0.01
2013-10-4,85.1,75.5,70.7,73.0,70.9,68.0,95,86,65,29.98,29.88,15,3,27,0.20
2013-10-5,80.8,72.3,64.9,75.0,70.3,64.0,98,93,78,29.93,29.78,9,2,20,1.69
2013-10-6,65.8,58.4,50.8,61.0,49.3,44.0,95,73,50,29.89,29.77,14,3,20,0.01
2013-10-7,67.2,55.6,46.7,51.0,47.9,44.0,94,77,50,30.11,29.87,12,2,13,0.00
2013-10-8,71.8,58.1,46.4,52.0,49.2,45.0,97,76,42,30.18,30.08,10,2,18,0.00
2013-10-9,75.8,60.2,45.2,62.0,53.8,44.0,96,81,55,30.15,30.04,6,1,9,0.00
2013-10-10,78.6,66.2,56.1,66.0,60.6,55.0,96,83,56,30.10,29.97,4,0,9,0.00
2013-10-11,78.7,67.4,56.3,65.0,59.6,55.0,97,78,53,30.00,29.90,7,2,14,0.00
2013-10-12,71.5,65.0,60.8,67.0,62.2,59.0,97,91,83,30.11,29.92,7,1,9,0.15
2013-10-13,73.5,61.0,50.0,59.0,49.4,43.0,96,70,33,30.30,30.11,10,2,14,0.01
2013-10-14,68.6,57.7,47.1,58.0,51.5,44.0,91,80,65,30.26,30.03,5,1,8,0.00
2013-10-15,69.8,65.9,61.6,65.0,63.0,58.0,95,90,84,30.03,29.87,10,3,14,0.13
2013-10-16,63.7,56.7,48.9,59.0,49.1,46.0,92,77,56,29.99,29.89,11,2,14,0.00
2013-10-17,63.1,53.4,48.7,51.0,48.5,46.0,95,84,58,29.97,29.90,6,1,12,0.11
2013-10-18,66.0,55.1,43.5,52.0,47.9,43.0,97,78,54,30.01,29.91,8,2,12,0.01
2013-10-19,57.6,49.3,43.9,47.0,41.8,37.0,94,77,48,30.00,29.90,9,3,14,0.14
2013-10-20,65.5,53.4,40.2,47.0,43.2,38.0,94,71,49,30.00,29.91,10,2,18,0.00
2013-10-21,62.4,53.8,45.3,51.0,46.4,39.0,85,76,64,30.03,29.93,10,2,12,0.00
2013-10-22,59.8,48.4,36.2,48.0,39.9,35.0,96,75,49,30.04,29.79,13,3,16,0.06
2013-10-23,50.2,45.1,40.0,41.0,35.7,32.0,85,71,51,30.10,29.89,15,4,21,0.00
2013-10-24,49.5,43.4,34.1,38.0,32.1,26.0,89,66,41,30.38,30.09,16,3,21,0.00
2013-10-25,52.5,40.1,29.3,31.0,28.5,26.0,93,67,37,30.51,30.25,5,1,9,0.00
2013-10-26,60.1,49.4,37.9,46.0,37.6,29.0,87,65,53,30.24,29.99,10,2,17,0.00
2013-10-27,62.3,46.3,33.7,39.0,35.9,32.0,93,71,37,30.11,30.00,5,1,7,0.00
2013-10-28,70.2,50.9,34.3,47.0,41.3,33.0,96,74,38,30.21,30.04,5,0,8,0.00
2013-10-29,64.2,53.4,44.4,63.0,51.4,42.0,97,93,84,30.23,30.04,7,1,11,0.35
2013-10-30,76.9,68.9,64.0,66.0,64.1,63.0,96,85,66,30.05,29.85,12,4,22,0.05
2013-10-31,68.0,63.7,54.0,66.0,62.1,51.0,98,94,81,29.85,29.37,19,5,26,0.99
2013-11-1,64.7,55.0,47.7,51.0,47.6,44.0,95,78,48,29.81,29.63,12,2,18,0.27
2013-11-2,54.4,48.7,41.2,45.0,42.0,38.0,89,78,58,30.16,29.81,15,3,20,0.01
2013-11-3,58.4,46.7,33.0,41.0,36.6,32.0,97,71,42,30.30,30.16,7,1,14,0.00
2013-11-4,59.3,52.6,46.5,50.0,43.6,39.0,94,72,58,30.24,30.16,8,3,15,0.00
2013-11-5,65.0,58.0,50.2,53.0,49.5,47.0,96,75,58,30.28,30.04,10,3,19,0.00
2013-11-6,62.6,52.4,40.5,55.0,48.2,38.0,94,86,66,30.21,29.94,15,5,21,0.00
2013-11-7,54.0,43.3,34.4,39.0,36.0,32.0,94,77,52,30.36,30.21,8,1,12,0.00
2013-11-8,57.7,45.0,30.6,40.0,33.9,29.0,97,69,38,30.37,30.12,8,2,15,0.91
2013-11-9,66.1,54.7,44.3,48.0,43.1,36.0,91,66,48,30.18,30.07,12,3,19,0.00
2013-11-10,57.3,47.3,36.3,46.0,36.7,31.0,95,70,38,30.38,30.18,9,2,14,0.00
2013-11-11,61.4,48.9,36.3,47.0,36.9,33.0,92,67,41,30.37,30.10,21,4,27,0.01
2013-11-12,39.0,32.5,25.4,35.0,23.9,20.0,92,71,52,30.70,30.37,21,6,24,0.01
2013-11-13,45.2,32.5,20.3,25.0,20.6,16.0,92,65,32,30.70,30.36,10,1,10,0.00
2013-11-14,55.1,44.4,32.9,27.0,25.0,24.0,70,48,31,30.36,30.08,17,4,22,0.00
2013-11-15,52.1,49.1,45.6,48.0,36.3,25.0,88,63,44,30.09,29.96,10,3,14,0.00
2013-11-16,66.5,59.1,50.8,64.0,55.7,48.0,95,88,80,29.97,29.69,16,6,27,0.25
2013-11-17,77.2,67.5,56.3,68.0,53.0,27.0,95,67,24,29.90,29.45,24,7,32,1.64
2013-11-18,57.3,48.6,36.1,42.0,35.7,28.0,87,64,34,30.26,29.91,15,3,21,0.00
2013-11-19,46.7,38.9,31.8,32.0,30.1,29.0,91,72,51,30.32,30.19,8,1,12,0.00
2013-11-20,54.8,42.6,30.3,38.0,33.3,28.0,92,72,45,30.21,30.05,7,2,12,0.00
2013-11-21,54.1,52.1,45.8,53.0,47.0,38.0,97,84,61,30.16,30.08,9,2,15,0.82
2013-11-22,52.7,44.7,38.5,52.0,42.6,35.0,98,92,86,30.44,30.13,14,6,20,0.03
2013-11-23,38.3,32.2,22.9,34.0,23.3,13.0,91,71,50,30.69,30.44,18,7,24,0.00
2013-11-24,30.8,25.0,18.2,17.0,13.8,12.0,77,63,48,30.76,30.47,8,3,13,0.00
2013-11-25,36.3,32.9,28.3,29.0,21.2,16.0,80,63,52,30.47,30.17,7,2,12,0.00
2013-11-26,41.8,35.0,26.0,31.0,26.2,13.0,83,71,58,30.19,29.99,17,6,28,0.00
2013-11-27,29.3,24.1,20.2,15.0,11.5,8.0,78,60,45,30.36,30.18,17,6,22,0.00
2013-11-28,44.4,31.7,22.6,28.0,20.9,12.0,90,66,49,30.47,30.27,11,3,19,0.00
2013-11-29,49.9,34.4,21.7,30.0,26.6,20.0,93,75,47,30.57,30.39,7,1,9,0.00
2013-11-30,54.6,43.5,29.3,36.0,32.0,26.0,89,66,45,30.38,30.13,15,3,21,0.00
2013-12-1,59.8,48.6,37.3,45.0,40.1,35.0,92,73,57,30.13,29.89,6,1,8,0.00
2013-12-2,59.2,46.8,35.8,50.0,42.8,34.0,95,86,69,29.89,29.67,6,1,10,0.00
2013-12-3,61.0,51.7,43.9,53.0,48.5,42.0,98,89,70,29.72,29.64,9,2,15,0.00
2013-12-4,68.1,61.2,45.6,62.0,57.1,44.0,98,87,73,29.78,29.55,14,4,25,0.01
2013-12-5,52.8,34.0,24.3,46.0,30.5,22.0,94,87,77,30.24,29.79,12,6,18,0.12
2013-12-6,24.1,21.8,18.8,22.0,20.2,16.0,94,93,89,30.54,30.21,10,5,15,0.00
2013-12-7,19.9,16.1,9.4,16.0,12.4,7.0,89,85,81,30.70,30.43,8,3,10,0.00
2013-12-8,30.0,25.7,20.1,29.0,23.4,15.0,95,91,82,30.43,30.01,8,3,10,0.00
2013-12-9,30.7,27.5,22.3,27.0,21.5,17.0,92,79,63,30.29,30.10,10,3,15,0.06
2013-12-10,36.2,26.5,17.8,23.0,20.2,16.0,93,78,51,30.36,30.25,10,2,16,0.05
2013-12-11,34.5,26.5,15.9,27.0,20.5,7.0,94,78,65,30.64,30.33,14,3,18,0.08
2013-12-12,33.2,20.6,6.2,18.0,9.3,3.0,88,64,36,30.65,30.33,7,2,15,0.02
2013-12-13,39.3,31.4,21.4,33.0,24.6,17.0,93,76,54,30.32,29.97,12,2,13,0.08
2013-12-14,36.4,34.2,30.5,35.0,32.3,27.0,97,92,86,30.11,29.80,16,5,19,0.78
2013-12-15,34.4,30.4,27.4,32.0,26.4,23.0,91,85,77,30.23,30.08,12,4,17,0.01
2013-12-16,49.0,39.2,33.9,36.0,33.7,32.0,95,81,60,30.08,29.99,8,2,11,0.31
2013-12-17,44.4,34.7,27.3,32.0,28.1,25.0,93,78,56,30.27,30.08,9,3,14,0.05
2013-12-18,49.4,39.1,24.2,37.0,27.5,22.0,92,65,40,30.28,29.99,14,4,20,0.02
2013-12-19,58.2,53.0,47.2,52.0,45.1,36.0,80,75,63,30.00,29.83,16,6,26,0.00
2013-12-20,65.0,59.0,44.8,62.0,55.6,43.0,95,88,79,29.83,29.73,14,6,24,0.97
2013-12-21,44.6,39.2,36.0,44.0,38.2,35.0,97,96,94,29.78,29.47,11,4,17,3.33
2013-12-22,42.7,37.7,32.6,41.0,34.8,29.0,98,89,77,30.23,29.63,12,4,17,0.00
2013-12-23,32.6,28.2,20.6,29.0,22.1,14.0,87,78,71,30.54,30.23,15,6,19,0.00
2013-12-24,26.1,19.3,12.4,15.0,9.3,4.0,81,66,47,30.64,30.39,13,3,17,0.00
2013-12-25,38.6,30.9,22.0,30.0,22.8,15.0,89,72,62,30.41,30.24,10,3,14,0.00
2013-12-26,46.8,36.5,26.3,31.0,28.5,24.0,94,75,43,30.40,30.30,8,2,11,0.00
2013-12-27,54.2,42.2,32.0,37.0,33.2,29.0,87,72,47,30.39,30.27,8,2,12,0.00
2013-12-28,51.0,43.6,31.9,37.0,33.7,30.0,93,69,48,30.28,29.93,8,2,14,0.00
2013-12-29,44.9,35.3,24.0,38.0,29.8,18.0,85,80,69,30.23,29.86,15,6,21,0.01
2013-12-30,27.2,22.4,15.8,18.0,12.8,8.0,79,67,54,30.34,30.23,10,2,12,0.00
2013-12-31,44.3,33.5,22.1,31.0,21.9,16.0,80,63,42,30.43,30.24,13,3,17,0.00
2014-1-1,46.4,39.2,32.4,35.0,31.8,28.0,91,75,60,30.24,29.94,11,2,18,0.01
2014-1-2,37.6,22.6,14.6,35.0,17.4,10.0,94,80,68,30.47,29.93,18,10,27,0.01